Time;durP1;ratioP1;P1;durP2;ratioP2;P2;SDS_P1;SDS_P2;PMS_P1;PMS_P2;Temp;Humidity;BMP_temperature;BMP_pressure;BME280_temperature;BME280_humidity;BME280_pressure;Samples;Min_cycle;Max_cycle;Signal;HPM_P1;HPM_P2
2022/05/24 00:00:31;;;;;;;7.80;2.50;;;21.80;39.60;;;;;;5002983;28;20494;-75
2022/05/24 00:02:57;;;;;;;4.70;2.50;;;21.10;42.60;;;;;;5003737;28;20543;-75
2022/05/24 00:05:25;;;;;;;4.23;2.60;;;21.50;41.50;;;;;;5004963;28;20476;-75
2022/05/24 00:07:51;;;;;;;6.27;2.73;;;21.90;39.60;;;;;;5009713;28;20902;-75
2022/05/24 00:10:24;;;;;;;4.03;2.60;;;21.80;40.40;;;;;;5004871;28;20489;-75
2022/05/24 00:12:50;;;;;;;3.50;2.40;;;22.10;40.30;;;;;;5005099;28;20400;-75
2022/05/24 00:15:27;;;;;;;2.83;2.50;;;22.30;39.10;;;;;;5005438;28;20813;-75
2022/05/24 00:17:55;;;;;;;3.40;2.47;;;22.10;40.00;;;;;;5008646;28;20172;-75
2022/05/24 00:20:25;;;;;;;4.17;2.90;;;21.70;41.20;;;;;;5007412;28;20432;-75
2022/05/24 00:22:52;;;;;;;4.60;2.80;;;22.00;41.60;;;;;;5005395;28;20417;-75
2022/05/24 00:25:17;;;;;;;5.93;2.57;;;22.40;41.80;;;;;;5004008;28;21060;-75
2022/05/24 00:27:45;;;;;;;6.50;2.80;;;22.60;40.70;;;;;;5007630;28;20427;-75
2022/05/24 00:30:11;;;;;;;5.57;2.83;;;22.60;39.70;;;;;;5004258;28;20196;-75
2022/05/24 00:32:36;;;;;;;4.67;2.80;;;22.90;37.70;;;;;;5005301;28;20490;-75
2022/05/24 00:35:02;;;;;;;5.50;2.70;;;22.40;38.70;;;;;;5003939;28;20456;-75
2022/05/24 00:37:28;;;;;;;3.77;2.70;;;21.60;41.50;;;;;;5002235;28;20177;-75
2022/05/24 00:39:54;;;;;;;4.80;3.43;;;21.20;42.80;;;;;;5003268;28;20242;-75
2022/05/24 00:42:26;;;;;;;6.13;2.60;;;21.40;43.00;;;;;;5007459;28;20918;-75
2022/05/24 00:45:23;;;;;;;3.33;2.63;;;21.20;42.90;;;;;;5004742;28;20197;-75
2022/05/24 00:47:55;;;;;;;3.83;2.80;;;21.40;43.00;;;;;;4988933;28;20461;-75
2022/05/24 00:50:38;;;;;;;3.00;2.33;;;21.10;43.30;;;;;;5004209;28;20407;-75
2022/05/24 00:53:16;;;;;;;4.60;2.60;;;21.00;45.20;;;;;;5007544;28;20423;-75
2022/05/24 00:56:10;;;;;;;7.77;3.00;;;21.10;43.70;;;;;;5002000;28;20527;-75
2022/05/24 00:58:52;;;;;;;7.37;2.50;;;21.20;43.90;;;;;;5003537;28;20440;-75
2022/05/24 01:01:36;;;;;;;7.23;2.87;;;21.00;44.70;;;;;;5004946;28;20554;-75
2022/05/24 01:04:03;;;;;;;4.80;2.70;;;21.20;44.10;;;;;;5008846;28;20435;-75
2022/05/24 01:06:28;;;;;;;3.03;2.50;;;21.40;43.00;;;;;;5003887;28;20458;-75
2022/05/24 01:08:58;;;;;;;5.53;3.20;;;21.60;41.70;;;;;;5003921;28;20838;-75
2022/05/24 01:11:24;;;;;;;3.77;2.73;;;21.50;42.30;;;;;;5004008;28;20183;-75
2022/05/24 01:13:52;;;;;;;3.57;2.73;;;21.60;42.60;;;;;;5003237;28;20431;-75
2022/05/24 01:16:18;;;;;;;8.13;2.70;;;21.50;41.90;;;;;;5003858;28;20192;-72
2022/05/24 01:18:44;;;;;;;5.73;3.00;;;21.20;43.20;;;;;;5003007;28;20446;-72
2022/05/24 01:21:13;;;;;;;4.90;3.00;;;21.60;43.90;;;;;;5003689;28;20190;-72
2022/05/24 01:23:43;;;;;;;4.57;2.83;;;22.00;41.70;;;;;;5004252;28;20444;-72
2022/05/24 01:26:24;;;;;;;6.10;3.20;;;22.20;40.70;;;;;;5006263;28;20445;-72
2022/05/24 01:28:59;;;;;;;4.00;2.80;;;21.70;43.90;;;;;;5000465;28;20450;-72
2022/05/24 01:31:25;;;;;;;8.23;2.90;;;21.30;42.90;;;;;;5002941;28;20465;-72
2022/05/24 01:36:40;;;;;;;4.23;2.77;;;22.00;40.30;;;;;;5002266;28;20430;-73
2022/05/24 01:39:10;;;;;;;6.13;2.90;;;22.20;39.70;;;;;;5002733;28;20787;-73
2022/05/24 01:41:44;;;;;;;6.03;2.90;;;22.20;40.70;;;;;;5003922;28;20442;-73
2022/05/24 01:44:12;;;;;;;5.37;2.93;;;21.80;39.90;;;;;;5004269;28;20505;-73
2022/05/24 01:46:42;;;;;;;4.80;2.93;;;21.80;40.50;;;;;;5019121;28;20462;-73
2022/05/24 01:49:25;;;;;;;5.40;3.00;;;22.00;40.30;;;;;;5004557;28;20458;-73
2022/05/24 01:52:01;;;;;;;4.70;2.80;;;22.20;41.90;;;;;;5003472;28;20432;-73
2022/05/24 01:54:29;;;;;;;8.20;2.37;;;21.30;41.60;;;;;;5003699;28;21119;-73
2022/05/24 01:57:00;;;;;;;5.07;3.23;;;21.20;43.20;;;;;;5003856;28;20511;-73
2022/05/24 01:59:27;;;;;;;3.80;2.80;;;21.60;43.70;;;;;;5001357;28;20483;-73
2022/05/24 02:01:55;;;;;;;5.30;3.10;;;21.80;44.50;;;;;;5001649;28;20406;-73
2022/05/24 02:04:23;;;;;;;6.10;2.93;;;22.10;41.90;;;;;;4984166;28;20503;-73
2022/05/24 02:07:09;;;;;;;3.80;2.80;;;22.10;41.90;;;;;;5002843;28;20512;-73
2022/05/24 02:09:39;;;;;;;4.60;2.70;;;22.30;41.60;;;;;;5003174;28;20882;-73
2022/05/24 02:12:30;;;;;;;11.93;2.77;;;22.40;40.70;;;;;;5005621;28;20403;-73
2022/05/24 02:15:09;;;;;;;4.50;2.80;;;22.40;42.00;;;;;;5001441;28;20427;-73
2022/05/24 02:18:04;;;;;;;8.60;2.83;;;22.00;44.50;;;;;;5005390;28;20830;-73
2022/05/24 02:20:32;;;;;;;4.47;2.93;;;22.00;42.30;;;;;;4996246;28;20970;-73
2022/05/24 02:22:58;;;;;;;9.57;2.73;;;21.80;43.90;;;;;;5004804;28;20786;-73
2022/05/24 02:25:44;;;;;;;6.20;2.83;;;21.90;42.60;;;;;;5015624;28;20447;-73
2022/05/24 02:28:11;;;;;;;10.50;2.90;;;21.80;45.40;;;;;;5011830;28;20206;-73
2022/05/24 02:30:50;;;;;;;6.50;3.20;;;23.90;46.70;;;;;;5011202;28;20437;-73
2022/05/24 02:33:16;;;;;;;4.63;3.03;;;21.70;45.60;;;;;;5011621;28;20916;-73
2022/05/24 02:35:41;;;;;;;4.60;2.90;;;21.40;41.90;;;;;;5010807;28;20515;-73
2022/05/24 02:38:07;;;;;;;4.10;2.60;;;21.40;43.50;;;;;;5010388;28;20261;-73
2022/05/24 02:43:17;;;;;;;5.17;3.13;;;21.80;43.30;;;;;;5010735;28;20455;-73
2022/05/24 02:45:43;;;;;;;3.90;3.17;;;21.90;42.40;;;;;;5010662;28;20440;-74
2022/05/24 02:48:09;;;;;;;4.47;2.93;;;21.90;42.20;;;;;;5010578;28;20273;-74
2022/05/24 02:50:35;;;;;;;5.60;3.23;;;21.90;42.60;;;;;;5010003;28;20189;-74
2022/05/24 02:53:01;;;;;;;7.53;3.00;;;21.90;42.40;;;;;;4991776;28;20480;-74
2022/05/24 02:55:26;;;;;;;4.93;3.00;;;21.50;44.70;;;;;;5007683;28;20195;-74
2022/05/24 02:57:52;;;;;;;4.50;2.90;;;21.30;46.70;;;;;;5010424;28;20182;-74
2022/05/24 03:00:21;;;;;;;4.00;3.00;;;21.50;43.60;;;;;;5011456;28;20178;-74
2022/05/24 03:02:47;;;;;;;6.93;3.20;;;21.50;44.80;;;;;;5009587;28;20225;-74
2022/05/24 03:05:13;;;;;;;4.73;2.97;;;21.30;46.70;;;;;;5011276;28;20446;-74
2022/05/24 03:10:25;;;;;;;7.53;3.60;;;21.00;47.80;;;;;;5003331;28;20776;-74
2022/05/24 03:15:39;;;;;;;9.70;3.70;;;21.00;46.90;;;;;;5014623;28;20514;-74
2022/05/24 03:18:06;;;;;;;8.07;2.97;;;21.00;47.00;;;;;;5012034;28;20431;-74
2022/05/24 03:20:32;;;;;;;12.20;3.27;;;21.30;44.50;;;;;;5014579;28;20826;-74
2022/05/24 03:22:57;;;;;;;11.43;4.03;;;21.30;45.50;;;;;;5013431;28;20431;-74
2022/05/24 03:25:23;;;;;;;7.50;3.37;;;21.30;46.60;;;;;;5014379;28;20482;-74
2022/05/24 03:27:49;;;;;;;5.80;3.17;;;21.20;47.70;;;;;;5013591;28;20186;-74
2022/05/24 03:30:15;;;;;;;4.37;3.03;;;21.10;49.00;;;;;;5050308;22;20231;-73
2022/05/24 03:32:41;;;;;;;5.33;2.90;;;21.20;48.20;;;;;;5023281;28;20423;-72
2022/05/24 03:35:10;;;;;;;6.40;2.90;;;21.20;47.10;;;;;;5025321;28;20505;-72
2022/05/24 03:37:37;;;;;;;6.73;3.23;;;21.10;44.70;;;;;;5031502;28;20796;-72
2022/05/24 03:40:04;;;;;;;6.60;3.20;;;21.10;47.20;;;;;;5013872;28;20942;-73
2022/05/24 03:42:30;;;;;;;4.33;3.00;;;21.10;46.60;;;;;;5013328;28;20432;-72
2022/05/24 03:44:55;;;;;;;5.13;3.00;;;21.00;48.40;;;;;;5013719;28;20435;-72
2022/05/24 03:47:21;;;;;;;12.43;2.83;;;21.00;48.20;;;;;;5013942;28;20231;-73
2022/05/24 03:49:47;;;;;;;4.60;3.20;;;21.00;49.50;;;;;;5013891;28;20592;-72
2022/05/24 03:52:13;;;;;;;8.00;3.03;;;21.00;47.30;;;;;;5013029;28;20862;-74
2022/05/24 03:54:39;;;;;;;4.30;3.00;;;21.00;48.80;;;;;;5013405;28;20404;-73
2022/05/24 03:59:49;;;;;;;5.50;3.47;;;21.00;48.90;;;;;;5012728;28;20303;-74
2022/05/24 04:02:14;;;;;;;4.40;3.10;;;20.90;49.60;;;;;;5012991;28;20499;-72
2022/05/24 04:04:40;;;;;;;7.77;2.87;;;20.90;49.10;;;;;;5013596;28;20180;-72
2022/05/24 04:07:06;;;;;;;5.20;3.13;;;20.90;48.80;;;;;;5011156;28;20232;-73
2022/05/24 04:09:35;;;;;;;9.00;3.10;;;20.90;48.80;;;;;;5019042;28;20231;-73
2022/05/24 04:12:01;;;;;;;10.20;3.70;;;20.90;48.40;;;;;;5007806;28;20552;-72
2022/05/24 04:14:29;;;;;;;4.13;2.80;;;21.00;48.70;;;;;;5012601;28;20445;-72
2022/05/24 04:16:55;;;;;;;5.73;3.10;;;21.00;47.00;;;;;;5012278;28;20428;-72
2022/05/24 04:19:21;;;;;;;4.27;3.07;;;21.30;42.90;;;;;;5012979;28;20424;-72
2022/05/24 04:21:46;;;;;;;8.80;2.80;;;21.20;45.80;;;;;;5011486;28;20446;-75
2022/05/24 04:24:12;;;;;;;4.73;3.27;;;21.10;45.40;;;;;;5013048;28;20274;-73
2022/05/24 04:26:38;;;;;;;6.20;2.67;;;21.00;46.00;;;;;;5012503;28;20260;-72
2022/05/24 04:29:04;;;;;;;9.63;3.43;;;21.00;46.90;;;;;;5013200;28;20197;-74
2022/05/24 04:31:29;;;;;;;7.63;3.00;;;21.00;47.40;;;;;;5011369;28;20212;-72
2022/05/24 04:33:55;;;;;;;5.13;3.03;;;21.20;46.70;;;;;;5010542;28;20312;-72
2022/05/24 04:36:21;;;;;;;5.10;2.90;;;21.10;46.80;;;;;;5013059;28;20176;-72
2022/05/24 04:38:47;;;;;;;5.93;3.30;;;21.10;46.30;;;;;;5013004;28;20180;-73
2022/05/24 04:43:56;;;;;;;7.10;3.10;;;21.30;45.40;;;;;;5008947;28;20574;-74
2022/05/24 04:46:22;;;;;;;7.33;3.10;;;21.50;43.00;;;;;;5011904;28;20437;-74
2022/05/24 04:48:48;;;;;;;7.90;3.20;;;21.60;42.90;;;;;;5012504;28;20744;-72
2022/05/24 04:51:13;;;;;;;4.73;3.40;;;21.70;42.10;;;;;;5012070;28;20194;-73
2022/05/24 04:53:39;;;;;;;4.20;3.40;;;21.70;43.30;;;;;;5010749;28;20182;-73
2022/05/24 04:56:05;;;;;;;7.53;2.83;;;21.40;46.80;;;;;;5010671;28;20174;-73
2022/05/24 04:58:30;;;;;;;6.70;3.53;;;21.20;46.60;;;;;;5010882;28;20183;-74
2022/05/24 05:00:56;;;;;;;3.97;3.33;;;21.50;44.70;;;;;;5011913;28;20204;-72
2022/05/24 05:03:22;;;;;;;5.40;3.47;;;21.60;45.90;;;;;;5011145;28;20209;-73
2022/05/24 05:05:50;;;;;;;7.83;3.80;;;21.50;48.50;;;;;;5012034;28;20673;-73
2022/05/24 05:08:17;;;;;;;7.57;3.73;;;21.50;46.30;;;;;;5012448;28;20457;-72
2022/05/24 05:10:42;;;;;;;6.50;3.90;;;21.30;47.50;;;;;;5012425;28;20435;-76
2022/05/24 05:13:09;;;;;;;8.07;4.33;;;21.40;45.40;;;;;;5011577;28;20420;-72
2022/05/24 05:15:37;;;;;;;7.70;4.00;;;21.50;44.20;;;;;;5011556;28;20178;-74
2022/05/24 05:18:11;;;;;;;9.87;4.70;;;21.60;41.90;;;;;;5017017;28;20408;-72
2022/05/24 05:20:41;;;;;;;9.30;4.30;;;21.40;45.20;;;;;;5013867;28;20485;-72
2022/05/24 05:23:09;;;;;;;8.73;3.70;;;21.30;47.30;;;;;;5012003;28;20789;-73
2022/05/24 05:25:35;;;;;;;7.23;4.10;;;21.30;47.30;;;;;;5010837;28;20579;-72
2022/05/24 05:28:01;;;;;;;5.60;3.90;;;21.30;48.20;;;;;;5011582;28;20838;-72
2022/05/24 05:33:11;;;;;;;8.43;4.03;;;21.40;47.00;;;;;;5011158;28;20247;-72
2022/05/24 05:35:36;;;;;;;10.17;3.40;;;21.30;47.30;;;;;;5009506;28;20429;-72
2022/05/24 05:38:02;;;;;;;6.20;4.13;;;21.40;47.60;;;;;;5009678;28;20553;-72
2022/05/24 05:40:28;;;;;;;5.80;3.77;;;21.40;47.50;;;;;;5010000;28;20221;-73
2022/05/24 05:42:53;;;;;;;6.40;3.47;;;21.40;47.20;;;;;;5012060;28;20281;-73
2022/05/24 05:45:19;;;;;;;4.40;3.30;;;21.40;45.50;;;;;;5012043;28;20630;-72
2022/05/24 05:47:45;;;;;;;5.33;3.30;;;21.50;45.30;;;;;;5011173;28;20177;-72
2022/05/24 05:50:11;;;;;;;8.53;3.70;;;21.60;44.70;;;;;;5011307;28;20472;-72
2022/05/24 05:52:36;;;;;;;4.93;3.33;;;21.60;45.10;;;;;;5010259;28;20648;-72
2022/05/24 05:55:03;;;;;;;6.00;3.27;;;21.60;47.50;;;;;;5012722;28;20183;-73
2022/05/24 05:57:28;;;;;;;5.40;3.30;;;21.60;43.60;;;;;;5012153;28;20181;-72
2022/05/24 05:59:54;;;;;;;13.63;3.43;;;21.60;41.70;;;;;;5012251;28;20459;-73
2022/05/24 06:02:20;;;;;;;7.03;3.10;;;21.60;39.20;;;;;;5011577;28;20191;-72
2022/05/24 06:04:46;;;;;;;4.53;2.90;;;21.60;41.80;;;;;;5011097;28;20190;-72
2022/05/24 06:07:11;;;;;;;5.60;3.13;;;21.80;39.50;;;;;;5012541;28;20905;-72
2022/05/24 06:09:37;;;;;;;4.33;2.80;;;21.80;37.60;;;;;;5012224;28;20217;-72
2022/05/24 06:12:03;;;;;;;4.57;2.73;;;21.90;37.40;;;;;;5013360;28;20570;-72
2022/05/24 06:14:30;;;;;;;5.30;3.17;;;21.50;34.70;;;;;;5011515;28;20215;-72
2022/05/24 06:16:55;;;;;;;3.70;2.40;;;20.90;35.80;;;;;;5009798;28;20483;-72
2022/05/24 06:19:21;;;;;;;4.87;2.80;;;21.10;36.70;;;;;;5011209;28;20954;-72
2022/05/24 06:21:47;;;;;;;7.80;2.47;;;21.40;37.30;;;;;;5010834;28;20217;-73
2022/05/24 06:24:14;;;;;;;4.50;2.30;;;21.80;34.80;;;;;;5010690;28;20194;-72
2022/05/24 06:26:40;;;;;;;8.10;2.50;;;21.70;34.20;;;;;;5012392;28;20651;-72
2022/05/24 06:29:06;;;;;;;7.07;2.33;;;21.70;34.20;;;;;;5013087;28;20491;-73
2022/05/24 06:31:32;;;;;;;9.33;3.00;;;21.30;34.50;;;;;;5011755;28;20507;-72
2022/05/24 06:33:58;;;;;;;7.33;2.67;;;21.50;34.70;;;;;;4996627;28;20565;-72
2022/05/24 06:36:23;;;;;;;5.17;2.50;;;21.60;34.20;;;;;;5007847;28;20909;-73
2022/05/24 06:38:49;;;;;;;5.60;2.27;;;21.60;34.70;;;;;;5011092;28;20630;-73
2022/05/24 06:41:14;;;;;;;4.13;2.27;;;21.40;34.10;;;;;;5005637;28;20719;-72
2022/05/24 06:43:40;;;;;;;4.53;2.60;;;21.50;33.70;;;;;;5009935;28;20675;-75
2022/05/24 06:46:08;;;;;;;5.10;2.40;;;21.80;35.80;;;;;;5011848;28;20271;-74
2022/05/24 06:48:40;;;;;;;5.33;2.50;;;21.80;33.80;;;;;;5016798;28;20584;-72
2022/05/24 06:51:11;;;;;;;4.00;2.60;;;21.50;32.90;;;;;;5011647;28;20460;-73
2022/05/24 06:53:41;;;;;;;6.70;2.80;;;21.20;33.30;;;;;;5012483;28;20433;-71
2022/05/24 06:56:08;;;;;;;6.70;2.20;;;21.10;33.10;;;;;;5015166;28;20412;-71
2022/05/24 06:58:34;;;;;;;4.80;2.40;;;21.30;32.80;;;;;;5014004;28;20937;-71
2022/05/24 07:03:45;;;;;;;4.30;2.57;;;21.60;34.10;;;;;;5013827;28;20828;-71
2022/05/24 07:06:12;;;;;;;4.20;2.60;;;21.90;32.20;;;;;;5014846;28;20433;-72
2022/05/24 07:08:39;;;;;;;3.80;2.17;;;22.30;32.30;;;;;;5014730;28;20458;-73
2022/05/24 07:11:05;;;;;;;5.23;2.50;;;22.00;33.40;;;;;;5014384;28;20435;-72
2022/05/24 07:13:31;;;;;;;4.60;2.13;;;21.90;32.70;;;;;;5013485;28;20431;-73
2022/05/24 07:15:56;;;;;;;6.07;2.53;;;21.70;32.60;;;;;;5014014;28;20926;-73
2022/05/24 07:18:22;;;;;;;7.60;2.40;;;21.60;32.20;;;;;;5014590;28;20223;-72
2022/05/24 07:20:48;;;;;;;5.30;2.37;;;20.60;33.80;;;;;;5013254;28;20242;-72
2022/05/24 07:23:19;;;;;;;5.30;2.70;;;20.50;35.40;;;;;;5013560;28;20199;-70
2022/05/24 07:25:46;;;;;;;6.77;2.60;;;20.30;35.90;;;;;;5012207;28;20212;-71
2022/05/24 07:28:16;;;;;;;2.73;2.10;;;19.90;38.30;;;;;;5012472;28;20522;-70
2022/05/24 07:30:42;;;;;;;3.73;2.33;;;19.00;44.30;;;;;;5013799;28;20462;-71
2022/05/24 07:33:08;;;;;;;3.60;2.30;;;18.60;48.50;;;;;;5014242;28;20501;-71
2022/05/24 07:35:34;;;;;;;2.87;2.07;;;17.60;54.80;;;;;;5012621;28;20527;-71
2022/05/24 07:38:00;;;;;;;3.83;2.07;;;17.50;53.30;;;;;;5012046;28;20213;-70
2022/05/24 07:46:00;;;;;;;4.97;2.47;;;17.10;52.50;;;;;;5010472;28;20612;-72
2022/05/24 07:48:26;;;;;;;8.33;1.97;;;17.40;47.30;;;;;;5010954;28;20457;-71
2022/05/24 07:50:52;;;;;;;2.87;1.80;;;17.90;46.60;;;;;;5007365;28;21064;-72
2022/05/24 07:53:18;;;;;;;13.20;1.80;;;17.20;47.30;;;;;;5006395;28;20435;-72
2022/05/24 07:55:44;;;;;;;7.50;1.80;;;17.80;45.60;;;;;;5008284;28;20760;-72
2022/05/24 07:58:10;;;;;;;3.47;1.73;;;18.40;43.40;;;;;;5008954;28;21000;-70
2022/05/24 08:00:36;;;;;;;4.03;1.80;;;17.60;45.60;;;;;;5013258;28;20440;-70
2022/05/24 08:03:04;;;;;;;10.90;2.10;;;18.00;45.20;;;;;;5011909;28;20797;-71
2022/05/24 08:05:31;;;;;;;4.77;1.70;;;18.60;43.10;;;;;;5009323;28;20945;-72
2022/05/24 08:07:57;;;;;;;2.00;1.63;;;19.00;42.30;;;;;;5016033;28;20406;-72
2022/05/24 08:10:23;;;;;;;4.90;1.87;;;19.30;41.80;;;;;;5022472;28;20901;-70
2022/05/24 08:12:49;;;;;;;2.50;1.70;;;19.00;43.10;;;;;;5011818;28;20936;-72
2022/05/24 08:15:14;;;;;;;2.70;1.83;;;19.60;42.00;;;;;;5030215;28;20419;-85
2022/05/24 08:17:41;;;;;;;3.23;1.70;;;19.70;39.60;;;;;;5018277;28;20229;-73
2022/05/24 08:20:09;;;;;;;2.20;1.60;;;19.10;42.20;;;;;;5009575;28;20213;-71
2022/05/24 08:22:39;;;;;;;5.53;1.90;;;19.20;40.90;;;;;;5010176;28;20440;-70
2022/05/24 08:25:07;;;;;;;3.33;1.80;;;19.10;40.00;;;;;;5006107;28;20427;-71
2022/05/24 08:27:33;;;;;;;4.60;1.67;;;18.80;42.60;;;;;;5008257;28;20440;-70
2022/05/24 08:29:59;;;;;;;3.67;1.70;;;18.40;43.30;;;;;;5007560;28;20498;-70
2022/05/24 08:32:25;;;;;;;2.20;1.50;;;18.10;43.70;;;;;;5008854;28;20444;-72
2022/05/24 08:34:52;;;;;;;2.93;1.47;;;18.20;41.60;;;;;;5010840;28;20534;-71
2022/05/24 08:37:18;;;;;;;1.80;1.40;;;18.00;40.30;;;;;;5010113;28;20494;-71
2022/05/24 08:39:44;;;;;;;4.43;1.60;;;17.40;39.30;;;;;;5012762;28;20564;-71
2022/05/24 08:42:31;;;;;;;2.97;1.60;;;18.10;40.70;;;;;;5008077;28;20529;-71
2022/05/24 08:48:25;;;;;;;2.77;1.70;;;18.30;37.70;;;;;;5009063;28;20481;-71
2022/05/24 08:51:00;;;;;;;1.80;1.50;;;18.60;36.00;;;;;;5010183;28;21029;-70
2022/05/24 08:53:45;;;;;;;2.93;1.67;;;18.10;37.50;;;;;;4999613;28;20474;-71
2022/05/24 08:56:19;;;;;;;2.30;1.43;;;18.00;37.70;;;;;;5011039;28;21074;-71
2022/05/24 08:58:50;;;;;;;2.50;1.50;;;18.10;37.10;;;;;;5010147;28;20440;-71
2022/05/24 09:01:23;;;;;;;2.20;1.80;;;18.40;35.60;;;;;;5007187;28;20488;-70
2022/05/24 09:03:49;;;;;;;5.30;1.60;;;20.20;35.70;;;;;;5015387;28;20436;-71
2022/05/24 09:06:34;;;;;;;2.17;1.60;;;18.80;33.40;;;;;;5010363;28;20439;-72
2022/05/24 09:09:18;;;;;;;2.67;1.60;;;18.20;35.90;;;;;;5009807;28;20489;-72
2022/05/24 09:12:10;;;;;;;2.07;1.60;;;18.20;36.70;;;;;;5010718;28;20416;-72
2022/05/24 09:14:59;;;;;;;2.10;1.60;;;18.70;35.50;;;;;;5003797;28;20432;-72
2022/05/24 09:17:32;;;;;;;2.33;1.60;;;18.20;37.60;;;;;;5006501;28;20436;-70
2022/05/24 09:19:57;;;;;;;4.00;2.00;;;17.70;37.60;;;;;;5008258;28;20459;-71
2022/05/24 09:22:23;;;;;;;2.23;1.80;;;17.80;36.60;;;;;;5011486;28;20438;-73
2022/05/24 09:24:56;;;;;;;7.70;1.80;;;18.00;35.40;;;;;;5009368;28;20194;-70
2022/05/24 09:27:28;;;;;;;2.00;1.50;;;17.70;36.00;;;;;;5003712;28;20178;-70
2022/05/24 09:30:07;;;;;;;2.30;1.87;;;17.90;35.90;;;;;;5011684;28;20473;-70
2022/05/24 09:32:37;;;;;;;2.23;1.73;;;18.10;36.10;;;;;;5008907;28;20556;-71
2022/05/24 09:35:11;;;;;;;2.23;1.77;;;18.20;34.60;;;;;;5008219;28;20440;-70
2022/05/24 09:37:39;;;;;;;2.60;1.80;;;18.40;34.70;;;;;;5041970;22;20986;-73
2022/05/24 09:40:25;;;;;;;2.50;1.70;;;18.90;34.40;;;;;;5031238;28;20483;-73
2022/05/24 09:42:51;;;;;;;6.07;1.90;;;19.00;34.10;;;;;;5030456;28;20430;-72
2022/05/24 09:45:24;;;;;;;2.40;1.90;;;18.80;33.00;;;;;;5027419;28;20428;-73
2022/05/24 09:47:56;;;;;;;2.43;1.80;;;18.60;33.90;;;;;;5015498;28;20207;-73
2022/05/24 09:50:37;;;;;;;3.37;2.10;;;18.40;34.60;;;;;;5011283;28;20453;-73
2022/05/24 09:53:03;;;;;;;2.70;1.80;;;18.30;32.60;;;;;;5010392;28;20423;-74
2022/05/24 09:55:48;;;;;;;3.50;2.00;;;18.40;34.00;;;;;;5006121;28;20439;-73
2022/05/24 09:58:25;;;;;;;3.30;1.87;;;18.60;32.60;;;;;;5010299;28;20959;-74
2022/05/24 10:01:00;;;;;;;3.00;1.83;;;18.30;33.40;;;;;;5010847;28;20407;-73
2022/05/24 10:03:32;;;;;;;2.90;1.90;;;18.20;34.00;;;;;;4992692;28;20400;-74
2022/05/24 10:06:07;;;;;;;9.13;2.00;;;18.50;31.30;;;;;;5011420;28;20399;-75
2022/05/24 10:09:00;;;;;;;3.40;2.07;;;18.50;31.90;;;;;;5009432;28;20465;-74
2022/05/24 10:11:37;;;;;;;2.43;1.90;;;18.80;30.80;;;;;;5009779;28;20431;-74
2022/05/24 10:14:06;;;;;;;4.23;2.00;;;18.70;31.90;;;;;;5009721;28;20501;-74
2022/05/24 10:16:45;;;;;;;2.30;1.93;;;19.10;31.70;;;;;;5010276;28;20529;-73
2022/05/24 10:19:29;;;;;;;12.40;1.90;;;19.10;29.70;;;;;;5009859;28;20410;-74
2022/05/24 10:22:21;;;;;;;3.07;1.90;;;19.10;31.00;;;;;;5013593;28;20762;-75
2022/05/24 10:25:05;;;;;;;2.47;1.70;;;19.70;30.00;;;;;;5014849;28;20442;-74
2022/05/24 10:27:42;;;;;;;2.40;1.80;;;19.60;29.90;;;;;;5014799;28;20449;-75
2022/05/24 10:30:16;;;;;;;2.70;1.80;;;18.70;30.00;;;;;;5015195;28;20872;-75
2022/05/24 10:39:01;;;;;;;5.83;2.03;;;18.60;31.30;;;;;;5015364;28;20438;-74
2022/05/24 10:41:39;;;;;;;7.87;2.00;;;19.10;29.90;;;;;;5014659;28;20423;-73
2022/05/24 10:44:13;;;;;;;2.63;1.90;;;19.40;28.60;;;;;;5014482;28;20902;-74
2022/05/24 10:46:45;;;;;;;2.17;1.80;;;19.50;28.70;;;;;;5014444;28;20431;-74
2022/05/24 10:49:16;;;;;;;2.53;2.00;;;19.70;27.40;;;;;;5014752;28;20457;-74
2022/05/24 10:52:00;;;;;;;3.00;1.70;;;20.20;28.20;;;;;;5014324;28;20407;-74
2022/05/24 10:54:47;;;;;;;2.80;2.03;;;20.00;26.60;;;;;;5013218;28;20430;-74
2022/05/24 10:57:19;;;;;;;3.50;1.80;;;20.00;27.20;;;;;;5014330;28;20420;-74
2022/05/24 10:59:52;;;;;;;1.93;1.60;;;19.50;25.60;;;;;;5014618;28;20942;-74
2022/05/24 11:02:35;;;;;;;2.57;1.70;;;19.40;27.70;;;;;;5014285;28;20415;-74
2022/05/24 11:05:10;;;;;;;3.47;2.10;;;19.40;27.00;;;;;;5014528;28;20491;-75
2022/05/24 11:07:37;;;;;;;3.60;1.93;;;19.30;26.40;;;;;;5014652;28;20434;-74
2022/05/24 11:10:13;;;;;;;2.10;1.70;;;19.50;27.10;;;;;;5014278;28;20485;-75
2022/05/24 11:12:44;;;;;;;6.23;1.90;;;19.30;28.10;;;;;;5013867;28;20658;-76
2022/05/24 11:15:20;;;;;;;3.73;1.63;;;19.70;27.80;;;;;;5013813;28;20420;-74
2022/05/24 11:17:46;;;;;;;4.33;2.33;;;21.20;26.50;;;;;;5014198;28;20533;-75
2022/05/24 11:20:14;;;;;;;3.43;1.90;;;22.20;23.50;;;;;;5013919;28;20435;-75
2022/05/24 11:23:04;;;;;;;4.10;1.70;;;21.50;24.60;;;;;;5013196;28;20433;-74
2022/05/24 11:25:45;;;;;;;6.67;1.87;;;21.30;24.70;;;;;;5014028;28;20479;-75
2022/05/24 11:28:27;;;;;;;3.00;1.70;;;20.30;25.90;;;;;;5014062;28;20446;-75
2022/05/24 11:30:54;;;;;;;5.60;2.00;;;20.50;26.40;;;;;;5013769;28;20398;-75
2022/05/24 11:33:41;;;;;;;3.87;2.00;;;22.80;28.10;;;;;;5011698;28;20524;-73
2022/05/24 11:36:31;;;;;;;2.77;1.80;;;19.90;26.40;;;;;;5010671;28;20822;-74
2022/05/24 11:39:04;;;;;;;2.90;2.00;;;20.60;25.60;;;;;;5013037;28;20487;-74
2022/05/24 11:41:31;;;;;;;2.23;1.83;;;21.30;24.10;;;;;;5010762;28;20445;-72
2022/05/24 11:44:01;;;;;;;2.83;1.83;;;22.50;22.10;;;;;;5010074;28;20822;-74
2022/05/24 11:46:33;;;;;;;1.80;1.60;;;23.60;21.80;;;;;;5011826;28;20436;-75
2022/05/24 11:49:04;;;;;;;15.53;2.20;;;23.60;19.90;;;;;;5008747;28;20464;-75
2022/05/24 11:51:47;;;;;;;3.50;1.97;;;22.70;22.30;;;;;;5003196;28;20801;-74
2022/05/24 11:54:16;;;;;;;3.07;1.80;;;23.40;20.00;;;;;;5011835;28;20775;-75
2022/05/24 11:56:55;;;;;;;3.30;1.90;;;23.20;20.40;;;;;;5002041;28;20433;-75
2022/05/24 11:59:39;;;;;;;2.80;1.87;;;22.80;22.00;;;;;;4994274;28;20747;-74
2022/05/24 12:02:27;;;;;;;5.67;2.07;;;22.10;22.50;;;;;;5012859;28;20453;-74
2022/05/24 12:07:54;;;;;;;5.00;1.90;;;22.00;22.90;;;;;;4993745;28;20460;-74
2022/05/24 12:10:23;;;;;;;2.87;1.80;;;23.00;23.70;;;;;;4993816;28;20457;-75
2022/05/24 12:12:54;;;;;;;4.80;2.17;;;24.10;20.80;;;;;;4994358;28;20409;-74
2022/05/24 12:15:24;;;;;;;4.03;1.93;;;24.30;21.00;;;;;;5011911;28;20451;-74
2022/05/24 12:17:58;;;;;;;20.40;1.90;;;23.90;19.60;;;;;;5012725;28;20439;-74
2022/05/24 12:20:46;;;;;;;3.03;1.80;;;23.90;20.90;;;;;;4993602;28;20415;-74
2022/05/24 12:23:19;;;;;;;2.20;1.60;;;24.00;20.70;;;;;;4993428;28;20530;-74
2022/05/24 12:26:05;;;;;;;4.47;1.80;;;23.20;20.50;;;;;;5012842;28;20420;-74
2022/05/24 12:28:37;;;;;;;2.93;1.90;;;22.80;21.60;;;;;;5011395;28;20486;-74
2022/05/24 12:31:22;;;;;;;5.03;2.00;;;21.60;23.60;;;;;;5011448;28;20911;-73
2022/05/24 12:34:08;;;;;;;3.70;2.00;;;21.50;24.50;;;;;;5004006;28;20436;-74
2022/05/24 12:36:44;;;;;;;5.70;2.10;;;21.50;23.20;;;;;;5021978;28;20460;-73
2022/05/24 12:39:14;;;;;;;3.43;1.87;;;20.70;24.90;;;;;;5014136;28;20415;-74
2022/05/24 12:41:43;;;;;;;5.63;2.30;;;21.70;23.20;;;;;;5011914;28;20433;-74
2022/05/24 12:44:28;;;;;;;3.57;2.20;;;21.90;23.40;;;;;;5010592;28;20455;-74
2022/05/24 12:47:04;;;;;;;7.77;2.17;;;23.20;22.10;;;;;;5007663;28;20479;-74
2022/05/24 12:49:32;;;;;;;2.57;1.90;;;23.00;22.00;;;;;;5007579;28;20466;-75
2022/05/24 12:52:24;;;;;;;7.17;1.97;;;23.30;20.60;;;;;;5009956;28;20435;-75
2022/05/24 12:55:01;;;;;;;3.70;1.93;;;22.80;21.60;;;;;;5005757;28;20435;-74
2022/05/24 12:57:47;;;;;;;6.80;1.80;;;22.20;22.40;;;;;;5005253;28;20470;-73
2022/05/24 13:00:25;;;;;;;4.50;2.30;;;22.00;23.30;;;;;;5015087;28;20561;-73
2022/05/24 13:02:53;;;;;;;2.60;2.00;;;22.40;22.70;;;;;;5016925;28;20451;-73
2022/05/24 13:05:25;;;;;;;3.87;2.13;;;23.20;22.10;;;;;;5011166;28;20440;-73
2022/05/24 13:07:50;;;;;;;2.77;1.90;;;23.40;19.10;;;;;;5011192;28;20451;-73
2022/05/24 13:10:19;;;;;;;2.93;1.80;;;23.20;23.00;;;;;;5009413;28;20476;-74
2022/05/24 13:12:52;;;;;;;2.30;1.80;;;22.70;21.10;;;;;;5012945;28;20176;-75
2022/05/24 13:15:21;;;;;;;2.20;1.80;;;22.50;24.90;;;;;;5010006;28;20432;-74
2022/05/24 13:17:52;;;;;;;3.33;1.90;;;22.20;22.00;;;;;;5011507;28;20440;-73
2022/05/24 13:20:17;;;;;;;2.77;1.83;;;22.20;21.30;;;;;;5013538;28;20843;-74
2022/05/24 13:23:03;;;;;;;5.83;1.70;;;23.10;19.80;;;;;;5011950;28;20417;-74
2022/05/24 13:25:55;;;;;;;3.93;2.00;;;23.20;19.80;;;;;;5010040;28;20719;-75
2022/05/24 13:28:38;;;;;;;2.37;1.80;;;23.10;20.30;;;;;;5008696;28;20458;-76
2022/05/24 13:34:00;;;;;;;4.13;2.00;;;24.70;17.50;;;;;;5006984;28;20455;-74
2022/05/24 13:36:38;;;;;;;3.40;1.73;;;24.90;17.10;;;;;;5010972;28;20973;-75
2022/05/24 13:39:04;;;;;;;1.97;1.50;;;24.60;17.40;;;;;;5008980;28;20437;-75
2022/05/24 13:41:45;;;;;;;3.60;1.90;;;24.30;18.20;;;;;;5008945;28;20809;-76
2022/05/24 13:44:16;;;;;;;3.20;2.00;;;23.30;19.90;;;;;;5010427;28;20211;-75
2022/05/24 13:47:09;;;;;;;2.80;1.90;;;22.80;20.70;;;;;;5004328;28;20464;-76